Portada
METAR-TAF:

METAR-TAF

Aeroports :

Harrisburg, Pennsilvània, Estats Units d'Amèrica

latitud: 40-13-02N, longitud: 076-51-05W, altitud: 106 m

Observació

L'informe es va fer fa 43 minuts, a les 19:56 UTC
Vent 3 kt del Est
Temperatura 13°C
Humitat 44%
Pressió 1009 hPa
Visibilitat: 16.1 km
Escasses núvols a una alçada de 4700 ft

METAR: KCXY 191956Z 10003KT 10SM FEW047 13/01 A2979 RMK AO2 SLP090 T01280011

Hora: 15:39 (20:39 UTC)


TAF: manca

Observacions i pronòstics meteorològics de més de 4000 aeroports (METAR i TAF).

Les estacions disponibles són els punts grocs i vermells al mapa.

Posi el ratolí al punt desitjat per veure el nom de l'estació.

Feu clic per veure les observacions i els pronòstics meteorològics.

Per canviar el mapa: feu clic els botons verds amb una creu de color negre per apropar; al botó verd amb un guió per allunyar la imatge; o en les fletxes verdes per a mapes adjacents.


METAR-TAF: